首页
METAR-TAF:

METAR-TAF

机场 :

Greenville Downtown Airport

格林维尔, 南卡罗来纳州, 美国

纬度: 34-50-46N, 经度: 082-20-46W, 海拔: 319米

当前天气观测

该预报发布于12分钟前的21:00 UTC
风速13节,风向东转东北
温度 8°C
湿度 87%
气压 1022 hPa
能見度: 3.2公里
阴天层高于700英尺
小雨, 轻雾

METAR: KGMU 262100Z 06013KT 2SM -RA BR OVC007 08/06 A3017 RMK AO2 CIG 005V011 P0000 T00780061

时间: 16:12 (21:12 UTC)

预报

该预报发布于25分钟前的20:47 UTC
预报有效从26日的 21点(UTC)到 27日的 18点(UTC)
风速9节,风向东北
能見度: 9.7公里
多云层高于900英尺
阴天层高于4000英尺
小雨, 轻雾
从 26日的 2300点(UTC)
风速8节,风向东北
能見度: 8.0公里
阴天层高于500英尺
小雨, 轻雾
从 27日的 0600点(UTC)
风速6节,风向东北
能見度: 8.0公里
阴天层高于400英尺
轻雾, 附近有阵雨
几率 30%
从 27日的 06点(UTC)到 27日的 11点(UTC)
能見度: 6.4公里
阴天层高于200英尺
小阵雨, 轻雾
从 27日的 1100点(UTC)
风速3节,风向多变
能見度: 9.7公里
阴天层高于500英尺
轻雾
从 27日的 1600点(UTC)
风速5节,风向西南
能見度: 10公里
阴天层高于1300英尺

TAF: KGMU 262047Z 2621/2718 04009KT 6SM -RA BR BKN009 OVC040 FM262300 05008KT 5SM -RA BR OVC005 FM270600 04006KT 5SM BR VCSH OVC004 PROB30 2706/2711 4SM -SHRA BR OVC002 FM271100 VRB03KT 6SM BR OVC005 FM271600 23005KT P6SM OVC013

超过4000个机场的气象观测和天气预报(METAR&TAF报告)。

可查询的气象台以黄色和红色小点在地图上表示。

将鼠标移到小点上方,可查看气象台名称。

然后点击查看天气观测和预报。

如需切换地图:点击带黑十字的绿色按钮放大地图;点击带横线的绿色按钮缩小地图;或者点击绿色箭头查看邻近地区的地图。


METAR-TAF: